Time;durP1;ratioP1;P1;durP2;ratioP2;P2;SDS_P1;SDS_P2;PMS_P1;PMS_P2;Temp;Humidity;BMP_temperature;BMP_pressure;BME280_temperature;BME280_humidity;BME280_pressure;Samples;Min_cycle;Max_cycle;Signal;HPM_P1;HPM_P2
2023/02/13 00:00:22;;;;;;;74.83;45.87;;;4.60;80.60;;;;;;5043676;28;20211;-61
2023/02/13 00:02:50;;;;;;;71.60;44.60;;;4.60;80.40;;;;;;5033461;28;20217;-61
2023/02/13 00:05:17;;;;;;;74.63;45.73;;;4.60;81.00;;;;;;5033533;28;20203;-61
2023/02/13 00:07:44;;;;;;;76.53;48.27;;;4.60;80.90;;;;;;5041369;28;20234;-61
2023/02/13 00:10:12;;;;;;;77.23;49.10;;;4.60;81.70;;;;;;5034844;28;20290;-61
2023/02/13 00:12:39;;;;;;;80.57;46.60;;;4.60;81.30;;;;;;5037374;28;20521;-61
2023/02/13 00:15:07;;;;;;;80.47;47.87;;;4.60;82.20;;;;;;5036894;28;20250;-63
2023/02/13 00:17:34;;;;;;;82.37;46.20;;;4.60;82.00;;;;;;5036797;28;20277;-61
2023/02/13 00:20:01;;;;;;;77.37;45.70;;;4.60;81.90;;;;;;5042156;28;20186;-62
2023/02/13 00:22:28;;;;;;;75.27;46.13;;;4.60;81.90;;;;;;5041158;28;20596;-61
2023/02/13 00:24:55;;;;;;;73.37;46.03;;;4.50;81.80;;;;;;5033670;28;20261;-61
2023/02/13 00:27:22;;;;;;;73.20;45.80;;;4.50;81.80;;;;;;5036528;28;20217;-61
2023/02/13 00:29:49;;;;;;;82.90;47.30;;;4.50;81.90;;;;;;5038027;28;20354;-62
2023/02/13 00:32:16;;;;;;;78.77;46.43;;;4.40;82.10;;;;;;5040384;28;20213;-61
2023/02/13 00:34:43;;;;;;;83.90;47.17;;;4.40;82.50;;;;;;5034786;28;20195;-61
2023/02/13 00:37:10;;;;;;;75.10;44.70;;;4.40;82.70;;;;;;5039027;28;20541;-61
2023/02/13 00:39:37;;;;;;;73.77;46.27;;;4.40;82.90;;;;;;5045234;28;20207;-61
2023/02/13 00:42:05;;;;;;;74.60;45.23;;;4.40;83.10;;;;;;5044087;28;20656;-61
2023/02/13 00:44:32;;;;;;;73.27;46.63;;;4.50;83.20;;;;;;5043703;28;20644;-61
2023/02/13 00:47:00;;;;;;;80.00;49.83;;;4.40;83.20;;;;;;5039507;28;20222;-61
2023/02/13 00:49:27;;;;;;;76.17;45.63;;;4.40;83.20;;;;;;5035735;28;20211;-61
2023/02/13 00:51:54;;;;;;;74.83;45.87;;;4.40;83.40;;;;;;5036152;28;20606;-64
2023/02/13 00:54:21;;;;;;;80.60;46.87;;;4.40;83.50;;;;;;5038192;28;20237;-61
2023/02/13 00:56:48;;;;;;;75.37;47.70;;;4.40;83.60;;;;;;5035577;28;20210;-61
2023/02/13 00:59:16;;;;;;;80.53;48.10;;;4.40;83.90;;;;;;5040830;28;20245;-61
2023/02/13 01:01:43;;;;;;;80.67;46.97;;;4.40;84.00;;;;;;5040165;28;20541;-61
2023/02/13 01:04:10;;;;;;;77.70;47.57;;;4.40;84.20;;;;;;5032988;28;20203;-61
2023/02/13 01:06:38;;;;;;;79.67;46.47;;;4.40;84.50;;;;;;5030469;28;20246;-61
2023/02/13 01:09:05;;;;;;;83.97;48.33;;;4.40;85.40;;;;;;5037024;28;20226;-61
2023/02/13 01:11:34;;;;;;;73.17;45.77;;;4.40;85.60;;;;;;5041707;28;20240;-61
2023/02/13 01:14:01;;;;;;;75.90;45.67;;;4.40;85.40;;;;;;5035044;28;20512;-61
2023/02/13 01:16:28;;;;;;;72.27;44.70;;;4.40;85.30;;;;;;5040022;28;21714;-61
2023/02/13 01:18:55;;;;;;;75.27;46.60;;;4.40;85.10;;;;;;5038641;28;20202;-64
2023/02/13 01:21:23;;;;;;;76.83;45.30;;;4.30;85.00;;;;;;5034820;28;20302;-61
2023/02/13 01:23:52;;;;;;;74.47;44.60;;;4.30;85.00;;;;;;5038417;28;20225;-63
2023/02/13 01:26:21;;;;;;;71.97;45.67;;;4.30;85.00;;;;;;5022433;28;20254;-61
2023/02/13 01:28:56;;;;;;;76.20;47.43;;;4.20;84.60;;;;;;5031260;28;20237;-61
2023/02/13 01:31:24;;;;;;;78.43;47.03;;;4.20;84.30;;;;;;5027998;28;20581;-61
2023/02/13 01:33:51;;;;;;;79.23;48.80;;;4.10;84.30;;;;;;5038623;28;20203;-61
2023/02/13 01:36:21;;;;;;;81.87;48.10;;;4.10;84.40;;;;;;5038912;28;20598;-61
2023/02/13 01:38:53;;;;;;;83.70;48.53;;;4.00;84.70;;;;;;5034180;28;20203;-61
2023/02/13 01:41:20;;;;;;;69.53;44.50;;;4.00;85.00;;;;;;5035309;28;20229;-61
2023/02/13 01:43:47;;;;;;;82.57;48.97;;;4.00;85.20;;;;;;5037227;28;20207;-61
2023/02/13 01:46:19;;;;;;;81.70;46.93;;;4.00;85.30;;;;;;5037792;28;20201;-61
2023/02/13 01:48:48;;;;;;;74.80;45.00;;;3.90;85.40;;;;;;5039851;28;20519;-61
2023/02/13 01:51:22;;;;;;;83.33;48.10;;;3.90;85.30;;;;;;5035331;28;20195;-61
2023/02/13 01:54:02;;;;;;;86.83;49.63;;;3.80;85.40;;;;;;5023937;28;20207;-61
2023/02/13 01:56:45;;;;;;;82.33;51.27;;;3.80;85.70;;;;;;5031841;28;20217;-61
2023/02/13 01:59:23;;;;;;;89.00;49.77;;;3.80;85.80;;;;;;5033666;28;20297;-61
2023/02/13 02:01:50;;;;;;;78.87;47.93;;;3.80;86.10;;;;;;5042524;28;20207;-61
2023/02/13 02:04:26;;;;;;;78.27;48.30;;;3.80;86.40;;;;;;5036274;28;20206;-61
2023/02/13 02:06:59;;;;;;;77.97;47.70;;;3.80;86.60;;;;;;5025933;28;20244;-61
2023/02/13 02:09:35;;;;;;;76.50;45.83;;;3.80;86.80;;;;;;5032267;28;20256;-61
2023/02/13 02:12:08;;;;;;;73.30;44.07;;;3.80;86.80;;;;;;5037002;28;20644;-61
2023/02/13 02:14:39;;;;;;;62.97;37.67;;;3.70;86.80;;;;;;5030373;28;20218;-61
2023/02/13 02:17:10;;;;;;;64.73;40.13;;;3.70;86.40;;;;;;5022719;28;20261;-61
2023/02/13 02:19:40;;;;;;;74.27;44.30;;;3.60;84.80;;;;;;5035291;28;20224;-62
2023/02/13 02:22:46;;;;;;;77.53;48.23;;;3.50;84.10;;;;;;5034974;28;20205;-61
2023/02/13 02:25:45;;;;;;;79.63;48.80;;;3.40;84.40;;;;;;5037383;28;20301;-62
2023/02/13 02:28:42;;;;;;;82.07;46.50;;;3.40;84.90;;;;;;5035404;28;20275;-61
2023/02/13 02:31:22;;;;;;;75.07;46.07;;;3.30;85.30;;;;;;5052581;28;20297;-61
2023/02/13 02:33:58;;;;;;;76.93;47.23;;;3.20;85.50;;;;;;5039140;28;20215;-61
2023/02/13 02:37:04;;;;;;;90.40;48.43;;;3.20;85.50;;;;;;5032284;28;20671;-61
2023/02/13 02:39:47;;;;;;;85.30;47.90;;;3.10;85.60;;;;;;5033803;28;20251;-61
2023/02/13 02:42:16;;;;;;;81.30;49.00;;;3.00;85.70;;;;;;5041622;28;20622;-61
2023/02/13 02:44:55;;;;;;;83.30;48.97;;;3.00;85.80;;;;;;5050474;28;20651;-61
2023/02/13 02:50:23;;;;;;;86.53;51.93;;;2.90;86.10;;;;;;5035579;28;20210;-61
2023/02/13 02:53:05;;;;;;;86.57;49.97;;;2.80;86.10;;;;;;5024494;28;20293;-61
2023/02/13 02:55:46;;;;;;;77.53;48.13;;;2.80;86.30;;;;;;5034170;28;20310;-61
2023/02/13 03:06:54;;;;;;;87.57;51.23;;;2.60;86.40;;;;;;5037841;28;20280;-61
2023/02/13 03:15:07;;;;;;;87.50;52.40;;;2.50;86.60;;;;;;5028259;28;20635;-62
2023/02/13 03:23:24;;;;;;;91.00;53.53;;;2.50;86.50;;;;;;5041266;28;20213;-61
2023/02/13 03:26:44;;;;;;;91.00;55.57;;;2.40;86.10;;;;;;5032990;28;20341;-61
2023/02/13 03:32:34;;;;;;;94.27;54.43;;;2.40;86.50;;;;;;5035170;28;20198;-61
2023/02/13 03:38:17;;;;;;;94.00;55.87;;;2.40;87.00;;;;;;5031849;28;20235;-61
2023/02/13 03:44:04;;;;;;;96.73;55.63;;;2.40;87.30;;;;;;5035031;28;20280;-61
2023/02/13 03:46:36;;;;;;;89.93;54.87;;;2.30;87.10;;;;;;5028564;28;20552;-61
2023/02/13 03:51:57;;;;;;;98.20;58.03;;;2.30;87.30;;;;;;5039473;28;20536;-61
2023/02/13 04:00:27;;;;;;;91.77;55.70;;;2.20;87.80;;;;;;5036429;28;20288;-61
2023/02/13 04:03:06;;;;;;;101.13;57.00;;;2.20;88.10;;;;;;5032234;28;20649;-62
2023/02/13 04:05:40;;;;;;;99.30;56.93;;;2.20;88.20;;;;;;5039455;28;20201;-60
2023/02/13 04:08:07;;;;;;;90.20;55.73;;;2.20;88.20;;;;;;5043102;28;20240;-61
2023/02/13 04:10:41;;;;;;;85.20;53.77;;;2.20;88.30;;;;;;5029005;28;20229;-61
2023/02/13 04:13:33;;;;;;;88.77;52.80;;;2.20;88.20;;;;;;5045264;28;20216;-63
2023/02/13 04:16:10;;;;;;;93.33;53.87;;;2.20;88.00;;;;;;5035605;28;20205;-60
2023/02/13 04:18:38;;;;;;;91.03;53.43;;;2.10;87.80;;;;;;5041099;28;20538;-61
2023/02/13 04:21:06;;;;;;;86.17;52.83;;;2.10;87.60;;;;;;5037406;28;20297;-61
2023/02/13 04:23:34;;;;;;;96.00;58.57;;;2.00;87.30;;;;;;5037261;28;20198;-61
2023/02/13 04:26:07;;;;;;;97.17;57.83;;;2.00;87.20;;;;;;5037017;28;20220;-61
2023/02/13 04:28:34;;;;;;;100.03;57.87;;;1.90;87.20;;;;;;5034657;28;20289;-60
2023/02/13 04:31:01;;;;;;;100.63;59.43;;;1.90;87.40;;;;;;5038304;28;20540;-61
2023/02/13 04:33:29;;;;;;;92.73;56.17;;;1.90;87.70;;;;;;5032815;28;20203;-61
2023/02/13 04:35:56;;;;;;;92.50;55.20;;;1.90;88.10;;;;;;5042328;28;20240;-61
2023/02/13 04:38:23;;;;;;;89.47;53.37;;;1.90;88.30;;;;;;5034739;28;20206;-61
2023/02/13 04:40:50;;;;;;;98.73;58.53;;;1.90;88.10;;;;;;5033893;28;20202;-61
2023/02/13 04:43:17;;;;;;;93.13;57.27;;;1.80;87.80;;;;;;5043170;28;20198;-61
2023/02/13 04:45:48;;;;;;;91.77;54.60;;;1.80;88.00;;;;;;5043503;28;20520;-62
2023/02/13 04:48:15;;;;;;;93.13;57.00;;;1.90;88.20;;;;;;5041668;28;20257;-61
2023/02/13 04:50:42;;;;;;;97.87;56.77;;;1.80;88.20;;;;;;5038240;28;20716;-60
2023/02/13 04:53:09;;;;;;;103.53;60.13;;;1.80;88.20;;;;;;5039060;28;20206;-61
2023/02/13 04:55:36;;;;;;;106.60;59.57;;;1.80;88.10;;;;;;5035059;28;20199;-61
2023/02/13 04:58:03;;;;;;;98.13;59.63;;;1.80;88.00;;;;;;5038570;28;20198;-61
2023/02/13 05:00:30;;;;;;;101.87;59.37;;;1.70;88.40;;;;;;5041801;28;20205;-61
2023/02/13 05:03:15;;;;;;;100.70;57.10;;;1.70;88.80;;;;;;5032990;28;20546;-61
2023/02/13 05:05:43;;;;;;;99.17;56.90;;;1.70;89.20;;;;;;5034015;28;20210;-61
2023/02/13 05:08:10;;;;;;;101.33;56.17;;;1.70;89.10;;;;;;5037164;28;20316;-61
2023/02/13 05:10:37;;;;;;;95.43;54.53;;;1.70;89.10;;;;;;5033541;28;20214;-62
2023/02/13 05:13:04;;;;;;;91.20;55.97;;;1.70;88.90;;;;;;5039542;28;20197;-61
2023/02/13 05:15:32;;;;;;;100.03;56.57;;;1.70;88.90;;;;;;5035430;28;20523;-61
2023/02/13 05:17:59;;;;;;;93.87;54.00;;;1.60;88.90;;;;;;5036925;28;20198;-61
2023/02/13 05:20:27;;;;;;;97.67;57.67;;;1.60;88.90;;;;;;5037266;28;20238;-61
2023/02/13 05:25:40;;;;;;;104.37;54.30;;;1.60;89.20;;;;;;5029838;28;20288;-61
2023/02/13 05:29:17;;;;;;;99.13;55.67;;;1.60;89.50;;;;;;5029342;28;20221;-63
2023/02/13 05:30:55;;;;;;;96.70;55.90;;;1.60;89.70;;;;;;5041162;28;20206;-61
2023/02/13 05:33:23;;;;;;;93.10;56.63;;;1.60;89.70;;;;;;5029234;28;20608;-62
2023/02/13 05:35:50;;;;;;;89.50;53.17;;;1.60;89.70;;;;;;5035099;28;20642;-61
2023/02/13 05:38:17;;;;;;;90.03;55.07;;;1.50;89.60;;;;;;5035884;28;20288;-62
2023/02/13 05:40:44;;;;;;;98.97;56.07;;;1.50;89.50;;;;;;5036069;28;20216;-62
2023/02/13 05:43:11;;;;;;;95.03;55.57;;;1.50;89.70;;;;;;5038902;28;20708;-63
2023/02/13 05:45:38;;;;;;;98.93;57.07;;;1.50;89.90;;;;;;5037877;28;20212;-61
2023/02/13 05:48:05;;;;;;;89.63;55.07;;;1.50;90.00;;;;;;5036549;28;20225;-61
2023/02/13 05:50:32;;;;;;;94.77;57.77;;;1.50;90.00;;;;;;5037309;28;20229;-61
2023/02/13 05:52:59;;;;;;;90.90;53.40;;;1.50;90.10;;;;;;5034762;28;20193;-61
2023/02/13 05:55:26;;;;;;;94.87;56.47;;;1.50;90.10;;;;;;5036246;28;20216;-61
2023/02/13 05:57:56;;;;;;;90.53;52.70;;;1.60;90.10;;;;;;5033716;28;20233;-61
2023/02/13 06:00:24;;;;;;;95.53;53.57;;;1.60;90.10;;;;;;5036066;28;20201;-61
2023/02/13 06:02:51;;;;;;;86.80;51.70;;;1.60;90.20;;;;;;5034666;28;20278;-62
2023/02/13 06:05:18;;;;;;;94.03;54.43;;;1.60;90.30;;;;;;5042772;28;20208;-61
2023/02/13 06:07:45;;;;;;;94.30;55.27;;;1.60;90.30;;;;;;5038106;28;20267;-61
2023/02/13 06:10:12;;;;;;;88.83;48.57;;;1.70;90.40;;;;;;5036515;28;20229;-61
2023/02/13 06:12:39;;;;;;;88.97;53.20;;;1.70;90.40;;;;;;5033653;28;20210;-61
2023/02/13 06:15:06;;;;;;;91.87;52.03;;;1.70;90.30;;;;;;5033145;28;20227;-61
2023/02/13 06:17:33;;;;;;;87.40;51.93;;;1.70;90.40;;;;;;5032462;28;20202;-61
2023/02/13 06:20:01;;;;;;;86.57;51.37;;;1.70;90.30;;;;;;5032718;28;20210;-61
2023/02/13 06:22:28;;;;;;;85.57;51.23;;;1.70;90.30;;;;;;5033321;28;20205;-61
2023/02/13 06:24:55;;;;;;;91.20;51.97;;;1.70;90.20;;;;;;5040502;28;20624;-63
2023/02/13 06:27:22;;;;;;;92.53;51.20;;;1.70;90.20;;;;;;5030954;28;20201;-61
2023/02/13 06:29:49;;;;;;;85.70;49.97;;;1.60;90.10;;;;;;5030946;28;20621;-61
2023/02/13 06:32:16;;;;;;;95.57;52.10;;;1.60;90.00;;;;;;5037292;28;20190;-61
2023/02/13 06:34:43;;;;;;;91.63;51.70;;;1.60;90.00;;;;;;5034915;28;20587;-61
2023/02/13 06:37:10;;;;;;;80.87;48.30;;;1.60;89.90;;;;;;5037828;28;20505;-61
2023/02/13 06:39:37;;;;;;;78.40;47.83;;;1.60;90.00;;;;;;5032067;28;20295;-60
2023/02/13 06:42:04;;;;;;;93.10;51.80;;;1.60;89.90;;;;;;5035260;28;20234;-60
2023/02/13 06:44:31;;;;;;;81.67;48.60;;;1.60;90.00;;;;;;5034139;28;20209;-61
2023/02/13 06:46:58;;;;;;;89.50;47.37;;;1.60;90.10;;;;;;5038278;28;20200;-61
2023/02/13 06:49:25;;;;;;;86.23;49.10;;;1.60;90.10;;;;;;5035414;28;20226;-61
2023/02/13 06:51:52;;;;;;;97.30;52.70;;;1.60;90.10;;;;;;5035455;28;20228;-60
2023/02/13 06:54:20;;;;;;;89.87;52.00;;;1.70;90.20;;;;;;5041444;28;20210;-61
2023/02/13 06:56:52;;;;;;;86.10;51.00;;;1.70;90.40;;;;;;5036262;28;20233;-61
2023/02/13 06:59:19;;;;;;;85.57;51.87;;;1.80;90.60;;;;;;5039377;28;20283;-60
2023/02/13 07:01:46;;;;;;;80.80;47.53;;;1.90;90.50;;;;;;5036716;28;20209;-60
2023/02/13 07:04:13;;;;;;;82.47;50.40;;;2.10;90.20;;;;;;5042482;28;20263;-60
2023/02/13 07:06:40;;;;;;;89.73;49.70;;;2.30;89.40;;;;;;5035888;28;20248;-60
2023/02/13 07:09:07;;;;;;;81.73;48.53;;;2.50;89.30;;;;;;5035623;28;20210;-62
2023/02/13 07:11:36;;;;;;;88.60;51.27;;;2.70;88.60;;;;;;5036013;28;20699;-60
2023/02/13 07:14:03;;;;;;;85.70;49.87;;;3.00;87.30;;;;;;5033708;28;20192;-61
2023/02/13 07:16:31;;;;;;;89.80;53.63;;;3.30;86.30;;;;;;5035229;28;20246;-60
2023/02/13 07:18:58;;;;;;;90.97;51.90;;;3.40;85.10;;;;;;5038274;28;20274;-61
2023/02/13 07:21:25;;;;;;;85.83;51.53;;;3.60;84.20;;;;;;5030473;28;20206;-61
2023/02/13 07:42:27;;;;;;;91.17;57.80;;;4.60;77.90;;;;;;5083839;27;20632;-63
2023/02/13 07:44:56;;;;;;;85.23;53.77;;;6.10;73.80;;;;;;5091961;28;20300;-61
2023/02/13 07:47:23;;;;;;;90.70;52.33;;;6.20;73.70;;;;;;5085438;28;20205;-62
2023/02/13 07:49:53;;;;;;;86.63;53.17;;;6.30;73.40;;;;;;5085542;28;20536;-61
2023/02/13 07:52:21;;;;;;;83.63;52.63;;;6.40;73.40;;;;;;5079705;28;20215;-61
2023/02/13 07:54:50;;;;;;;91.73;55.07;;;6.40;73.50;;;;;;5087876;28;20201;-61
2023/02/13 07:57:17;;;;;;;91.47;55.40;;;6.40;73.40;;;;;;5080184;28;20197;-62
2023/02/13 07:59:45;;;;;;;90.20;53.90;;;6.30;73.50;;;;;;5080496;28;20197;-61
2023/02/13 08:02:13;;;;;;;89.63;55.30;;;6.20;74.20;;;;;;5097424;28;20201;-61
2023/02/13 08:04:44;;;;;;;94.47;55.93;;;6.00;75.00;;;;;;5076721;28;20206;-61
2023/02/13 08:07:16;;;;;;;92.77;54.93;;;5.90;75.80;;;;;;5079492;28;20194;-60
2023/02/13 08:12:33;;;;;;;85.70;55.13;;;5.60;76.30;;;;;;5079784;28;20194;-60
2023/02/13 08:15:00;;;;;;;89.03;55.73;;;5.40;77.40;;;;;;5078641;28;20254;-61
2023/02/13 08:17:27;;;;;;;89.00;53.57;;;5.30;78.50;;;;;;5080485;28;20193;-61
2023/02/13 08:19:55;;;;;;;93.17;57.20;;;5.30;79.30;;;;;;5077627;28;20287;-61
2023/02/13 08:22:21;;;;;;;86.10;55.90;;;5.30;79.30;;;;;;5081714;28;20276;-61
2023/02/13 08:24:48;;;;;;;89.00;56.03;;;5.30;79.50;;;;;;5081326;28;20207;-61
2023/02/13 08:27:15;;;;;;;92.73;56.63;;;5.40;80.10;;;;;;5083366;28;20208;-61
2023/02/13 08:29:43;;;;;;;102.27;57.17;;;5.40;80.50;;;;;;5074015;28;20635;-61
2023/02/13 08:32:10;;;;;;;94.23;56.50;;;5.50;80.50;;;;;;5078160;28;20631;-61
2023/02/13 08:34:37;;;;;;;100.07;58.00;;;5.60;79.50;;;;;;5072435;28;20186;-62
2023/02/13 08:37:04;;;;;;;100.97;58.87;;;5.60;79.30;;;;;;5073958;28;20202;-61
2023/02/13 08:39:31;;;;;;;97.67;60.73;;;5.60;79.80;;;;;;5077853;28;20230;-60
2023/02/13 08:41:58;;;;;;;95.50;58.50;;;5.80;80.30;;;;;;5071495;28;20234;-61
2023/02/13 08:44:25;;;;;;;105.30;59.40;;;5.90;80.00;;;;;;5066817;28;20296;-61
2023/02/13 08:46:52;;;;;;;109.47;60.63;;;6.00;79.70;;;;;;5065783;28;20260;-62
2023/02/13 08:49:19;;;;;;;94.13;59.97;;;6.10;79.80;;;;;;5063252;28;20202;-61
2023/02/13 08:51:46;;;;;;;97.70;58.73;;;6.20;79.90;;;;;;5065163;28;20277;-61
2023/02/13 08:54:13;;;;;;;94.33;60.23;;;6.40;79.80;;;;;;5065907;28;20196;-61
2023/02/13 08:56:41;;;;;;;95.30;61.37;;;6.50;79.20;;;;;;5067647;28;20701;-61
2023/02/13 08:59:08;;;;;;;95.37;59.57;;;6.70;78.90;;;;;;5063496;28;20190;-61
2023/02/13 09:01:35;;;;;;;97.57;60.17;;;6.80;78.50;;;;;;5063623;28;20255;-61
2023/02/13 09:04:02;;;;;;;109.80;61.57;;;6.90;78.50;;;;;;5064413;28;20637;-61
2023/02/13 09:06:29;;;;;;;102.33;58.50;;;7.10;78.40;;;;;;5065413;28;20248;-62
2023/02/13 09:08:56;;;;;;;95.03;60.73;;;7.20;77.50;;;;;;5063582;28;20288;-62
2023/02/13 09:11:23;;;;;;;98.90;61.97;;;7.30;77.50;;;;;;5064289;28;20216;-61
2023/02/13 09:13:54;;;;;;;92.97;60.13;;;7.40;77.50;;;;;;5062600;28;20195;-61
2023/02/13 09:16:21;;;;;;;102.17;62.77;;;7.50;77.30;;;;;;5064832;28;20648;-61
2023/02/13 09:19:39;;;;;;;93.43;59.97;;;7.70;77.10;;;;;;5058343;28;20828;-65
2023/02/13 09:26:32;;;;;;;100.33;60.57;;;8.00;76.10;;;;;;5082066;28;20203;-61
2023/02/13 09:29:00;;;;;;;88.80;56.80;;;8.20;75.70;;;;;;5059590;28;20215;-62
2023/02/13 09:31:28;;;;;;;93.83;58.70;;;8.40;75.60;;;;;;5067851;28;20234;-62
2023/02/13 09:33:55;;;;;;;92.63;59.80;;;8.50;75.20;;;;;;5082682;28;20221;-61
2023/02/13 09:36:23;;;;;;;94.77;59.80;;;8.70;74.80;;;;;;5062593;28;20200;-61
2023/02/13 09:38:53;;;;;;;87.53;57.57;;;8.80;74.60;;;;;;5067975;28;20252;-61
2023/02/13 09:41:25;;;;;;;86.03;56.80;;;8.90;74.30;;;;;;5065463;28;20286;-61
2023/02/13 09:43:59;;;;;;;89.07;57.27;;;9.00;73.80;;;;;;5062660;28;20212;-61
2023/02/13 09:46:29;;;;;;;84.00;57.97;;;9.10;73.80;;;;;;5058335;28;20196;-61
2023/02/13 09:49:01;;;;;;;89.17;55.73;;;9.20;73.00;;;;;;5072456;28;20720;-62
2023/02/13 09:51:29;;;;;;;90.37;57.37;;;9.30;72.60;;;;;;5050282;28;20692;-62
2023/02/13 09:54:03;;;;;;;91.53;57.73;;;9.40;72.40;;;;;;5065591;28;20653;-62
2023/02/13 09:57:01;;;;;;;90.67;57.90;;;9.50;71.40;;;;;;5068031;28;20197;-61
2023/02/13 09:59:47;;;;;;;81.40;53.47;;;9.50;71.10;;;;;;5080336;28;20254;-64
2023/02/13 10:02:46;;;;;;;92.40;56.47;;;9.60;71.40;;;;;;5068557;28;20201;-62
2023/02/13 10:05:31;;;;;;;81.87;53.83;;;9.70;71.20;;;;;;5063771;28;20194;-61
2023/02/13 10:08:32;;;;;;;93.73;54.53;;;9.80;70.50;;;;;;5078432;28;20215;-62
2023/02/13 10:11:12;;;;;;;83.57;55.50;;;9.90;70.40;;;;;;5064479;28;20578;-61
2023/02/13 10:14:00;;;;;;;81.47;53.33;;;10.00;70.40;;;;;;5063522;28;20529;-61
2023/02/13 10:16:38;;;;;;;86.83;53.30;;;10.10;70.40;;;;;;5076520;28;20205;-61
2023/02/13 10:19:28;;;;;;;86.43;55.73;;;10.20;69.50;;;;;;5067232;28;20211;-61
2023/02/13 10:22:06;;;;;;;87.93;54.67;;;10.30;69.50;;;;;;5057098;28;20248;-61
2023/02/13 10:25:07;;;;;;;78.80;52.37;;;10.40;69.50;;;;;;5062724;28;20214;-61
2023/02/13 10:27:40;;;;;;;82.20;52.27;;;10.50;69.40;;;;;;5060036;28;20667;-62
2023/02/13 10:30:23;;;;;;;75.30;51.87;;;10.70;69.10;;;;;;5071928;28;20245;-61
2023/02/13 10:33:19;;;;;;;69.13;47.63;;;10.80;68.80;;;;;;5066508;28;20215;-61
2023/02/13 10:36:27;;;;;;;76.87;50.70;;;10.90;68.00;;;;;;5063431;28;20213;-61
2023/02/13 10:39:07;;;;;;;75.03;51.23;;;11.00;67.00;;;;;;5079937;28;20207;-61
2023/02/13 10:41:47;;;;;;;83.70;53.63;;;11.10;67.10;;;;;;5058563;28;20336;-64
2023/02/13 10:44:18;;;;;;;74.43;49.47;;;11.20;66.70;;;;;;5058176;28;20205;-62
2023/02/13 10:46:59;;;;;;;77.67;49.73;;;11.30;66.80;;;;;;5066248;28;20263;-62
2023/02/13 10:49:52;;;;;;;72.57;49.30;;;11.40;66.80;;;;;;5073385;28;20236;-62
2023/02/13 10:52:38;;;;;;;72.03;47.90;;;11.60;66.60;;;;;;5078060;28;20303;-60
2023/02/13 10:55:25;;;;;;;80.23;47.07;;;11.70;65.40;;;;;;5059503;28;20205;-62
2023/02/13 10:58:10;;;;;;;68.30;47.07;;;11.80;65.20;;;;;;5065139;28;20246;-61
2023/02/13 11:00:44;;;;;;;68.03;46.90;;;11.90;65.20;;;;;;5080551;28;20294;-62
2023/02/13 11:03:23;;;;;;;75.23;47.57;;;12.00;64.20;;;;;;5058094;28;20197;-62
2023/02/13 11:05:52;;;;;;;68.13;45.93;;;12.10;64.00;;;;;;5064903;28;20811;-61
2023/02/13 11:08:30;;;;;;;69.07;46.73;;;12.20;64.10;;;;;;5062672;28;20205;-61
2023/02/13 11:10:57;;;;;;;69.93;47.90;;;12.30;63.50;;;;;;5077586;28;20325;-62
2023/02/13 11:13:26;;;;;;;78.13;46.07;;;12.40;63.80;;;;;;5078335;28;20264;-62
2023/02/13 11:15:56;;;;;;;65.83;46.23;;;12.50;63.50;;;;;;5044758;28;20199;-62
2023/02/13 11:18:27;;;;;;;63.73;42.20;;;12.50;62.90;;;;;;5062988;28;20222;-61
2023/02/13 11:21:19;;;;;;;63.03;44.30;;;12.60;63.20;;;;;;5059448;28;20289;-61
2023/02/13 11:23:57;;;;;;;64.30;44.83;;;12.70;63.10;;;;;;5065503;28;20218;-62
2023/02/13 11:26:35;;;;;;;64.53;42.17;;;12.90;62.60;;;;;;5076303;28;20295;-62
2023/02/13 11:29:15;;;;;;;58.20;41.27;;;13.00;61.60;;;;;;5070356;28;20206;-62
2023/02/13 11:31:44;;;;;;;61.40;43.23;;;13.10;61.50;;;;;;5079615;28;20220;-61
2023/02/13 11:34:21;;;;;;;60.00;42.93;;;13.20;61.80;;;;;;5058543;28;20213;-62
2023/02/13 11:36:53;;;;;;;54.43;37.27;;;13.30;61.70;;;;;;5063958;28;20248;-62
2023/02/13 11:39:22;;;;;;;56.33;38.00;;;13.30;59.80;;;;;;5066576;28;20217;-61
2023/02/13 11:41:52;;;;;;;58.43;40.03;;;13.30;60.50;;;;;;5075552;28;20241;-62
2023/02/13 11:44:32;;;;;;;52.40;35.60;;;13.40;60.00;;;;;;5067641;28;20267;-61
2023/02/13 11:47:02;;;;;;;56.27;37.60;;;13.50;59.20;;;;;;5054378;28;20202;-62
2023/02/13 11:49:38;;;;;;;60.10;39.23;;;13.50;59.70;;;;;;5063035;28;20213;-61
2023/02/13 11:52:31;;;;;;;51.87;37.67;;;13.60;60.10;;;;;;5069775;28;20319;-62
2023/02/13 11:55:01;;;;;;;47.97;31.70;;;13.70;60.10;;;;;;5059345;28;20691;-63
2023/02/13 11:57:36;;;;;;;50.03;33.23;;;13.70;58.90;;;;;;5062474;28;20224;-61
2023/02/13 12:00:27;;;;;;;47.47;32.90;;;13.80;59.00;;;;;;5057970;28;20226;-62
2023/02/13 12:02:54;;;;;;;44.43;31.07;;;13.90;58.40;;;;;;5059533;28;20260;-62
2023/02/13 12:05:25;;;;;;;46.90;32.03;;;14.00;58.60;;;;;;5059393;28;20195;-63
2023/02/13 12:07:59;;;;;;;48.00;33.47;;;14.00;58.40;;;;;;5059445;28;20194;-60
2023/02/13 12:10:27;;;;;;;45.37;31.33;;;14.10;57.90;;;;;;5065062;28;20224;-62
2023/02/13 12:12:57;;;;;;;44.87;30.00;;;14.20;57.50;;;;;;5076730;28;20305;-63
2023/02/13 12:15:28;;;;;;;38.90;26.50;;;14.20;57.50;;;;;;5069932;28;20553;-63
2023/02/13 12:18:04;;;;;;;38.80;28.47;;;14.20;56.90;;;;;;5069095;28;20237;-61
2023/02/13 12:20:54;;;;;;;37.33;26.03;;;14.20;56.20;;;;;;5067236;28;20202;-63
2023/02/13 12:23:40;;;;;;;36.70;25.87;;;14.20;55.40;;;;;;5066403;28;20597;-60
2023/02/13 12:26:07;;;;;;;37.77;27.70;;;14.10;55.80;;;;;;5065910;28;20605;-60
2023/02/13 12:28:54;;;;;;;32.90;22.77;;;14.20;56.30;;;;;;5060399;28;20220;-61
2023/02/13 12:31:27;;;;;;;30.87;23.20;;;14.20;55.90;;;;;;5065868;28;20224;-62
2023/02/13 12:34:05;;;;;;;33.30;23.20;;;14.20;55.90;;;;;;5069574;28;20197;-62
2023/02/13 12:37:01;;;;;;;31.37;22.40;;;14.20;55.50;;;;;;5061070;28;20624;-62
2023/02/13 12:39:51;;;;;;;31.97;23.47;;;14.20;55.70;;;;;;5068181;28;20609;-60
2023/02/13 12:42:31;;;;;;;32.93;19.77;;;14.20;55.30;;;;;;5059178;28;20245;-63
2023/02/13 12:45:20;;;;;;;30.73;20.10;;;14.20;55.20;;;;;;5069005;28;21352;-61
2023/02/13 12:47:56;;;;;;;25.77;19.90;;;14.20;54.90;;;;;;5065704;28;20225;-62
2023/02/13 12:51:03;;;;;;;28.47;20.40;;;14.20;55.10;;;;;;5067354;28;20210;-60
2023/02/13 12:53:54;;;;;;;30.00;21.27;;;14.20;54.30;;;;;;5061317;28;20502;-63
2023/02/13 12:57:17;;;;;;;32.00;21.50;;;14.20;54.80;;;;;;5069805;28;20204;-61
2023/02/13 13:00:16;;;;;;;33.67;24.00;;;14.30;55.10;;;;;;4992907;28;20205;-66
2023/02/13 13:02:54;;;;;;;33.97;23.10;;;14.30;55.00;;;;;;4992452;28;20208;-63
2023/02/13 13:05:54;;;;;;;33.90;23.30;;;14.30;55.30;;;;;;5054422;28;20662;-62
2023/02/13 13:08:48;;;;;;;27.70;20.50;;;14.30;55.30;;;;;;5067304;28;20275;-63
2023/02/13 13:11:28;;;;;;;30.97;21.37;;;14.40;55.20;;;;;;5065787;28;20267;-63
2023/02/13 13:14:40;;;;;;;29.40;21.10;;;14.50;54.20;;;;;;5078729;28;20205;-63
2023/02/13 13:17:32;;;;;;;48.97;28.77;;;14.50;54.10;;;;;;5067484;28;20199;-63
2023/02/13 13:20:29;;;;;;;30.20;21.83;;;14.50;54.30;;;;;;5064161;28;20251;-63
2023/02/13 13:23:04;;;;;;;34.90;25.87;;;14.40;54.00;;;;;;5064774;28;20268;-63
2023/02/13 13:25:34;;;;;;;52.07;33.60;;;14.40;53.60;;;;;;5066993;28;20299;-63
2023/02/13 13:28:14;;;;;;;28.67;20.60;;;14.40;53.20;;;;;;5077905;28;20221;-63
2023/02/13 13:30:42;;;;;;;33.97;23.10;;;14.30;53.70;;;;;;5067073;28;20277;-63
2023/02/13 13:33:16;;;;;;;36.13;25.00;;;14.30;53.90;;;;;;5067919;28;20217;-64
2023/02/13 13:35:58;;;;;;;34.83;23.87;;;14.30;54.30;;;;;;5063525;28;20222;-63
2023/02/13 13:38:41;;;;;;;41.03;27.93;;;14.30;54.30;;;;;;5065252;28;20209;-63
2023/02/13 13:41:25;;;;;;;34.93;25.10;;;14.30;54.10;;;;;;5064622;28;20241;-64
2023/02/13 13:43:55;;;;;;;65.77;43.70;;;14.30;54.10;;;;;;5068808;28;20232;-64
2023/02/13 13:46:53;;;;;;;36.97;26.20;;;14.30;54.30;;;;;;5054532;28;20203;-63
2023/02/13 13:49:36;;;;;;;36.50;24.97;;;14.20;54.20;;;;;;5069933;28;20214;-63
2023/02/13 13:52:26;;;;;;;41.33;26.17;;;14.20;54.60;;;;;;5064242;28;20300;-64
2023/02/13 13:54:54;;;;;;;35.23;24.60;;;14.20;54.50;;;;;;5067678;28;20256;-63
2023/02/13 13:57:26;;;;;;;91.57;46.60;;;14.20;54.70;;;;;;5064642;28;20283;-63
2023/02/13 13:59:58;;;;;;;41.37;28.03;;;14.20;54.30;;;;;;5068966;28;20229;-64
2023/02/13 14:02:33;;;;;;;29.00;21.97;;;14.10;54.10;;;;;;5061595;28;20213;-63
2023/02/13 14:05:09;;;;;;;27.43;20.17;;;14.10;54.10;;;;;;5063067;28;20276;-63
2023/02/13 14:07:40;;;;;;;28.17;20.27;;;14.10;54.10;;;;;;5064115;28;20196;-63
2023/02/13 14:10:25;;;;;;;27.33;19.30;;;14.00;54.20;;;;;;5064884;28;20209;-63
2023/02/13 14:12:55;;;;;;;33.23;21.83;;;14.10;53.90;;;;;;5065242;28;20222;-65
2023/02/13 14:15:43;;;;;;;28.13;20.13;;;14.10;54.10;;;;;;5062569;28;20197;-63